createdAt,value
2023-03-06T00:01:49.045Z,100532.30
2023-03-06T00:04:17.661Z,100533.67
2023-03-06T00:06:47.754Z,100528.74
2023-03-06T00:09:15.912Z,100531.33
2023-03-06T00:11:45.846Z,100527.39
2023-03-06T00:14:16.680Z,100524.54
2023-03-06T00:16:45.560Z,100526.98
2023-03-06T00:19:13.685Z,100520.16
2023-03-06T00:21:41.764Z,100521.84
2023-03-06T00:24:09.926Z,100521.27
2023-03-06T00:26:39.619Z,100516.52
2023-03-06T00:29:08.402Z,100514.31
2023-03-06T00:31:39.452Z,100514.48
2023-03-06T00:34:08.474Z,100511.23
2023-03-06T00:36:36.706Z,100516.35
2023-03-06T00:39:07.426Z,100514.96
2023-03-06T00:41:38.611Z,100515.15
2023-03-06T00:44:07.057Z,100509.14
2023-03-06T00:46:35.228Z,100503.68
2023-03-06T00:49:03.897Z,100512.56
2023-03-06T00:51:33.147Z,100511.86
2023-03-06T00:54:01.833Z,100514.09
2023-03-06T00:56:31.314Z,100508.63
2023-03-06T00:58:59.518Z,100509.30
2023-03-06T01:01:27.866Z,100505.55
2023-03-06T01:03:56.022Z,100502.93
2023-03-06T01:06:25.538Z,100503.27
2023-03-06T01:08:55.498Z,100505.80
2023-03-06T01:11:27.952Z,100501.65
2023-03-06T01:13:56.224Z,100499.89
2023-03-06T01:16:27.402Z,100499.25
2023-03-06T01:18:56.322Z,100496.05
2023-03-06T01:21:24.478Z,100495.66
2023-03-06T01:23:53.262Z,100497.95
2023-03-06T01:26:21.545Z,100500.52
2023-03-06T01:28:49.870Z,100508.61
2023-03-06T01:31:18.279Z,100507.39
2023-03-06T01:33:46.960Z,100505.67
2023-03-06T01:36:15.739Z,100511.13
2023-03-06T01:38:44.269Z,100510.42
2023-03-06T01:41:15.920Z,100514.66
2023-03-06T01:43:46.411Z,100519.92
2023-03-06T01:46:33.948Z,100520.84
2023-03-06T01:49:04.970Z,100521.65
2023-03-06T01:51:44.411Z,100520.04
2023-03-06T01:54:16.520Z,100522.27
2023-03-06T01:56:47.064Z,100519.20
2023-03-06T01:59:15.577Z,100518.73
2023-03-06T02:01:45.095Z,100523.30
2023-03-06T02:04:16.514Z,100526.63
2023-03-06T02:06:44.863Z,100530.33
2023-03-06T02:09:13.158Z,100526.08
2023-03-06T02:11:51.460Z,100524.98
2023-03-06T02:14:19.574Z,100523.61
2023-03-06T02:16:49.760Z,100525.33
2023-03-06T02:19:37.052Z,100523.63
2023-03-06T02:22:05.663Z,100527.05
2023-03-06T02:24:58.701Z,100529.46
2023-03-06T02:27:27.127Z,100533.23
2023-03-06T02:29:58.036Z,100538.06
2023-03-06T02:32:26.369Z,100539.13
2023-03-06T02:34:56.820Z,100534.92
2023-03-06T02:37:26.076Z,100533.52
2023-03-06T02:40:08.580Z,100534.41
2023-03-06T02:42:37.820Z,100532.02
2023-03-06T02:45:06.757Z,100536.80
2023-03-06T02:47:35.214Z,100540.04
2023-03-06T02:50:05.368Z,100549.40
2023-03-06T02:52:34.547Z,100548.73
2023-03-06T02:55:03.820Z,100544.52
2023-03-06T02:57:31.980Z,100544.55
2023-03-06T03:00:00.728Z,100548.16
2023-03-06T03:02:29.499Z,100549.02
2023-03-06T03:04:57.597Z,100551.39
2023-03-06T03:07:26.557Z,100555.67
2023-03-06T03:09:54.815Z,100548.66
2023-03-06T03:12:23.844Z,100545.77
2023-03-06T03:14:52.929Z,100548.86
2023-03-06T03:17:21.532Z,100554.01
2023-03-06T03:19:50.269Z,100553.50
2023-03-06T03:22:19.593Z,100552.45
2023-03-06T03:24:48.143Z,100550.91
2023-03-06T03:27:16.423Z,100549.55
2023-03-06T03:29:44.795Z,100554.21
2023-03-06T03:32:13.636Z,100560.52
2023-03-06T03:34:42.642Z,100556.54
2023-03-06T03:37:11.034Z,100553.15
2023-03-06T03:39:39.573Z,100551.27
2023-03-06T03:42:09.495Z,100555.83
2023-03-06T03:44:38.499Z,100550.38
2023-03-06T03:47:08.360Z,100552.95
2023-03-06T03:49:37.326Z,100553.45
2023-03-06T03:52:06.585Z,100552.61
2023-03-06T03:54:36.142Z,100551.23
2023-03-06T03:57:04.443Z,100552.59
2023-03-06T03:59:37.601Z,100547.48
2023-03-06T04:02:15.041Z,100541.14
2023-03-06T04:04:52.799Z,100544.22
2023-03-06T04:07:21.124Z,100546.63
2023-03-06T04:09:49.720Z,100543.88
2023-03-06T04:12:19.630Z,100547.98
2023-03-06T04:14:56.436Z,100549.67
2023-03-06T04:17:25.851Z,100552.60
2023-03-06T04:19:55.575Z,100556.36
2023-03-06T04:22:23.915Z,100556.33
2023-03-06T04:24:53.411Z,100554.94
2023-03-06T04:27:24.633Z,100556.31
2023-03-06T04:29:56.483Z,100557.20
2023-03-06T04:32:25.211Z,100555.39
2023-03-06T04:34:53.417Z,100559.16
2023-03-06T04:37:25.254Z,100562.05
2023-03-06T04:39:54.423Z,100557.11
2023-03-06T04:42:22.595Z,100559.00
2023-03-06T04:44:51.254Z,100561.23
2023-03-06T04:47:20.436Z,100567.71
2023-03-06T04:49:48.493Z,100568.45
2023-03-06T04:52:16.545Z,100564.85
2023-03-06T04:54:46.137Z,100574.02
2023-03-06T04:57:14.423Z,100572.61
2023-03-06T04:59:44.608Z,100572.95
2023-03-06T05:02:12.895Z,100576.38
2023-03-06T05:04:42.492Z,100584.59
2023-03-06T05:07:10.813Z,100581.52
2023-03-06T05:09:39.261Z,100584.11
2023-03-06T05:12:07.677Z,100582.73
2023-03-06T05:14:36.319Z,100586.00
2023-03-06T05:17:07.150Z,100582.81
2023-03-06T05:19:36.280Z,100588.92
2023-03-06T05:22:05.154Z,100592.73
2023-03-06T05:24:33.351Z,100592.91
2023-03-06T05:27:01.676Z,100591.20
2023-03-06T05:29:29.895Z,100596.31
2023-03-06T05:32:00.495Z,100598.42
2023-03-06T05:34:29.535Z,100601.70
2023-03-06T05:36:58.158Z,100605.49
2023-03-06T05:39:27.315Z,100608.06
2023-03-06T05:41:56.001Z,100611.83
2023-03-06T05:44:35.049Z,100615.13
2023-03-06T05:47:03.747Z,100617.85
2023-03-06T05:49:32.979Z,100620.11
2023-03-06T05:52:04.061Z,100621.76
2023-03-06T05:54:33.127Z,100620.92
2023-03-06T05:57:01.849Z,100625.58
2023-03-06T05:59:30.103Z,100627.70
2023-03-06T06:01:59.023Z,100629.75
2023-03-06T06:04:27.338Z,100632.66
2023-03-06T06:06:59.363Z,100634.58
2023-03-06T06:09:28.210Z,100636.33
2023-03-06T06:12:00.757Z,100635.15
2023-03-06T06:14:33.766Z,100639.83
2023-03-06T06:17:03.993Z,100642.41
2023-03-06T06:19:32.324Z,100641.40
2023-03-06T06:22:03.842Z,100647.73
2023-03-06T06:24:32.401Z,100649.96
2023-03-06T06:27:03.643Z,100650.70
2023-03-06T06:29:33.189Z,100651.06
2023-03-06T06:32:02.514Z,100651.58
2023-03-06T06:34:32.048Z,100654.66
2023-03-06T06:37:00.392Z,100655.17
2023-03-06T06:39:29.999Z,100659.29
2023-03-06T06:42:20.063Z,100660.84
2023-03-06T06:44:48.070Z,100664.61
2023-03-06T06:47:22.853Z,100668.90
2023-03-06T06:49:55.064Z,100664.96
2023-03-06T06:52:24.377Z,100670.11
2023-03-06T06:54:53.242Z,100672.50
2023-03-06T06:57:21.978Z,100674.06
2023-03-06T06:59:54.197Z,100677.00
2023-03-06T07:02:22.695Z,100676.64
2023-03-06T07:05:03.666Z,100673.23
2023-03-06T07:07:37.252Z,100671.17
2023-03-06T07:10:18.016Z,100680.10
2023-03-06T07:12:51.584Z,100684.42
2023-03-06T07:15:21.830Z,100685.10
2023-03-06T07:17:50.422Z,100683.02
2023-03-06T07:20:19.771Z,100684.73
2023-03-06T07:22:51.674Z,100685.09
2023-03-06T07:25:20.536Z,100687.84
2023-03-06T07:27:56.405Z,100690.59
2023-03-06T07:30:25.470Z,100692.64
2023-03-06T07:33:00.206Z,100695.90
2023-03-06T07:35:28.680Z,100694.50
2023-03-06T07:38:01.941Z,100699.80
2023-03-06T07:40:30.474Z,100701.16
2023-03-06T07:43:16.827Z,100702.03
2023-03-06T07:45:56.872Z,100703.89
2023-03-06T07:48:28.970Z,100705.27
2023-03-06T07:51:01.510Z,100708.35
2023-03-06T07:53:30.066Z,100713.14
2023-03-06T07:56:09.371Z,100716.35
2023-03-06T07:58:41.383Z,100717.02
2023-03-06T08:01:12.137Z,100718.54
2023-03-06T08:03:40.798Z,100717.73
2023-03-06T08:06:14.488Z,100722.70
2023-03-06T08:08:45.185Z,100723.31
2023-03-06T08:11:15.204Z,100720.38
2023-03-06T08:13:44.981Z,100717.61
2023-03-06T08:16:14.543Z,100718.81
2023-03-06T08:18:45.047Z,100716.41
2023-03-06T08:21:15.955Z,100717.02
2023-03-06T08:23:47.552Z,100715.94
2023-03-06T08:26:17.735Z,100717.30
2023-03-06T08:28:46.164Z,100720.73
2023-03-06T08:31:30.065Z,100726.17
2023-03-06T08:33:59.858Z,100726.93
2023-03-06T08:36:31.038Z,100726.89
2023-03-06T08:39:00.146Z,100730.34
2023-03-06T08:41:28.356Z,100726.46
2023-03-06T08:44:02.670Z,100732.70
2023-03-06T08:46:33.868Z,100734.86
2023-03-06T08:49:02.677Z,100731.86
2023-03-06T08:51:35.105Z,100736.35
2023-03-06T08:54:06.686Z,100740.34
2023-03-06T08:56:40.767Z,100741.34
2023-03-06T08:59:10.648Z,100734.19
2023-03-06T09:01:39.194Z,100740.05
2023-03-06T09:04:29.847Z,100744.47
2023-03-06T09:06:58.446Z,100743.06
2023-03-06T09:09:33.272Z,100744.34
2023-03-06T09:12:02.304Z,100744.12
2023-03-06T09:14:32.884Z,100747.86
2023-03-06T09:17:01.687Z,100752.07
2023-03-06T09:19:30.962Z,100751.17
2023-03-06T09:22:01.348Z,100749.71
2023-03-06T09:24:33.100Z,100750.58
2023-03-06T09:27:05.092Z,100749.77
2023-03-06T09:29:34.141Z,100749.19
2023-03-06T09:32:02.545Z,100742.83
2023-03-06T09:34:31.184Z,100743.46
2023-03-06T09:37:03.118Z,100742.41
2023-03-06T09:39:31.862Z,100747.09
2023-03-06T09:42:02.160Z,100750.19
2023-03-06T09:44:48.054Z,100749.31
2023-03-06T09:47:39.013Z,100750.64
2023-03-06T09:50:25.988Z,100748.77
2023-03-06T09:52:54.650Z,100749.93
2023-03-06T09:55:25.461Z,100749.73
2023-03-06T09:58:23.446Z,100752.27
2023-03-06T10:01:19.674Z,100753.14
2023-03-06T10:04:12.391Z,100755.49
2023-03-06T10:06:46.913Z,100754.73
2023-03-06T10:09:59.983Z,100753.16
2023-03-06T10:12:36.813Z,100755.04
2023-03-06T10:15:18.306Z,100755.86
2023-03-06T10:17:50.200Z,100747.66
2023-03-06T10:20:21.722Z,100742.83
2023-03-06T10:23:05.419Z,100740.08
2023-03-06T10:26:00.306Z,100735.71
2023-03-06T10:29:07.703Z,100737.64
2023-03-06T10:31:36.969Z,100738.83
2023-03-06T10:34:24.610Z,100737.26
2023-03-06T10:36:54.309Z,100733.55
2023-03-06T10:39:25.690Z,100732.81
2023-03-06T10:41:53.804Z,100732.35
2023-03-06T10:44:24.539Z,100733.17
2023-03-06T10:46:56.385Z,100731.15
2023-03-06T10:49:30.310Z,100730.66
2023-03-06T10:52:14.017Z,100728.02
2023-03-06T10:54:44.967Z,100725.41
2023-03-06T10:57:25.331Z,100725.65
2023-03-06T11:00:04.785Z,100722.80
2023-03-06T11:02:42.922Z,100721.14
2023-03-06T11:05:21.051Z,100721.56
2023-03-06T11:07:54.808Z,100722.80
2023-03-06T11:10:24.761Z,100724.92
2023-03-06T11:13:07.851Z,100723.01
2023-03-06T11:15:41.536Z,100721.15
2023-03-06T11:18:10.794Z,100717.27
2023-03-06T11:20:51.493Z,100715.40
2023-03-06T11:23:35.483Z,100716.94
2023-03-06T11:26:06.539Z,100717.11
2023-03-06T11:28:46.316Z,100714.66
2023-03-06T11:31:25.149Z,100713.04
2023-03-06T11:34:12.320Z,100707.69
2023-03-06T11:36:59.023Z,100708.18
2023-03-06T11:40:07.587Z,100706.91
2023-03-06T11:42:50.126Z,100708.16
2023-03-06T11:45:42.295Z,100706.27
2023-03-06T11:48:20.491Z,100705.78
2023-03-06T11:50:53.330Z,100704.95
2023-03-06T11:53:28.466Z,100710.91
2023-03-06T11:56:31.806Z,100714.19
2023-03-06T11:59:42.193Z,100718.55
2023-03-06T12:02:44.978Z,100712.64
2023-03-06T12:05:21.561Z,100711.61
2023-03-06T12:08:04.668Z,100712.98
2023-03-06T12:10:51.553Z,100711.23
2023-03-06T12:13:28.048Z,100704.52
2023-03-06T12:16:25.161Z,100703.32
2023-03-06T12:19:16.319Z,100701.82
2023-03-06T12:22:26.982Z,100705.09
2023-03-06T12:25:02.813Z,100702.41
2023-03-06T12:27:43.636Z,100701.04
2023-03-06T12:30:24.115Z,100703.99
2023-03-06T12:33:09.910Z,100706.92
2023-03-06T12:36:04.014Z,100706.19
2023-03-06T12:38:37.423Z,100703.30
2023-03-06T12:41:17.559Z,100706.05
2023-03-06T12:44:24.579Z,100707.05
2023-03-06T12:47:02.536Z,100708.44
2023-03-06T12:49:34.829Z,100710.52
2023-03-06T12:52:07.043Z,100709.52
2023-03-06T12:54:40.053Z,100703.14
2023-03-06T12:57:08.996Z,100703.15
2023-03-06T12:59:44.386Z,100700.92
2023-03-06T13:02:40.678Z,100699.15
2023-03-06T13:05:30.297Z,100699.25
2023-03-06T13:08:28.909Z,100700.73
2023-03-06T13:11:22.019Z,100701.70
2023-03-06T13:13:50.553Z,100699.33
2023-03-06T13:16:18.861Z,100701.02
2023-03-06T13:18:51.282Z,100698.77
2023-03-06T13:21:45.088Z,100697.05
2023-03-06T13:24:24.015Z,100694.49
2023-03-06T13:26:56.232Z,100700.55
2023-03-06T13:29:37.017Z,100698.67
2023-03-06T13:32:22.984Z,100698.33
2023-03-06T13:35:02.406Z,100697.44
2023-03-06T13:37:40.919Z,100692.10
2023-03-06T13:40:10.040Z,100694.58
2023-03-06T13:42:42.154Z,100691.92
2023-03-06T13:45:35.094Z,100695.04
2023-03-06T13:48:41.518Z,100697.23
2023-03-06T13:50:55.838Z,100691.77
2023-03-06T13:53:59.013Z,100690.21
2023-03-06T13:56:47.695Z,100697.16
2023-03-06T13:59:39.058Z,100695.63
2023-03-06T14:02:30.201Z,100695.61
2023-03-06T14:05:04.059Z,100698.05
2023-03-06T14:07:35.914Z,100697.36
2023-03-06T14:10:13.840Z,100699.45
2023-03-06T14:13:07.249Z,100700.90
2023-03-06T14:15:42.694Z,100703.98
2023-03-06T14:18:26.027Z,100704.65
2023-03-06T14:21:03.788Z,100705.85
2023-03-06T14:23:38.387Z,100707.54
2023-03-06T14:26:23.229Z,100707.55
2023-03-06T14:29:04.685Z,100706.90
2023-03-06T14:31:33.930Z,100708.27
2023-03-06T14:34:11.516Z,100708.59
2023-03-06T14:36:53.202Z,100706.16
2023-03-06T14:39:23.346Z,100702.52
2023-03-06T14:41:51.559Z,100703.41
2023-03-06T14:44:26.832Z,100701.20
2023-03-06T14:47:11.515Z,100702.59
2023-03-06T14:49:39.971Z,100700.87
2023-03-06T14:52:18.040Z,100701.70
2023-03-06T14:54:46.922Z,100708.30
2023-03-06T14:57:17.661Z,100709.52
2023-03-06T14:59:49.823Z,100706.95
2023-03-06T15:02:23.560Z,100707.33
2023-03-06T15:05:00.715Z,100709.55
2023-03-06T15:07:30.837Z,100705.66
2023-03-06T15:10:01.924Z,100704.13
2023-03-06T15:12:36.963Z,100708.95
2023-03-06T15:15:11.620Z,100709.31
2023-03-06T15:17:43.400Z,100711.40
2023-03-06T15:20:38.156Z,100712.27
2023-03-06T15:23:19.539Z,100712.11
2023-03-06T15:25:56.084Z,100713.45
2023-03-06T15:28:26.431Z,100716.02
2023-03-06T15:31:10.853Z,100719.98
2023-03-06T15:33:41.834Z,100721.52
2023-03-06T15:36:21.272Z,100720.86
2023-03-06T15:38:52.535Z,100725.55
2023-03-06T15:41:30.488Z,100726.23
2023-03-06T15:44:00.120Z,100727.61
2023-03-06T15:46:28.907Z,100728.65
2023-03-06T15:49:01.074Z,100726.04
2023-03-06T15:51:33.328Z,100727.60
2023-03-06T15:54:11.907Z,100732.05
2023-03-06T15:56:47.432Z,100726.58
2023-03-06T15:59:26.315Z,100727.60
2023-03-06T16:01:55.480Z,100728.96
2023-03-06T16:04:26.820Z,100729.14
2023-03-06T16:06:59.284Z,100733.46
2023-03-06T16:09:29.518Z,100731.91
2023-03-06T16:11:57.823Z,100732.07
2023-03-06T16:14:26.121Z,100730.34
2023-03-06T16:16:54.781Z,100733.98
2023-03-06T16:19:27.151Z,100734.15
2023-03-06T16:21:57.149Z,100731.23
2023-03-06T16:24:26.708Z,100733.27
2023-03-06T16:26:55.090Z,100734.32
2023-03-06T16:29:26.015Z,100739.30
2023-03-06T16:31:55.331Z,100744.45
2023-03-06T16:34:23.875Z,100748.21
2023-03-06T16:36:55.015Z,100750.45
2023-03-06T16:39:23.770Z,100749.42
2023-03-06T16:41:55.885Z,100750.98
2023-03-06T16:44:24.373Z,100754.06
2023-03-06T16:46:52.674Z,100753.02
2023-03-06T16:49:22.769Z,100752.65
2023-03-06T16:51:51.590Z,100752.14
2023-03-06T16:54:20.170Z,100750.26
2023-03-06T16:56:48.644Z,100754.39
2023-03-06T16:59:17.133Z,100755.05
2023-03-06T17:01:45.662Z,100755.08
2023-03-06T17:04:14.142Z,100753.51
2023-03-06T17:06:43.798Z,100751.94
2023-03-06T17:09:14.682Z,100754.54
2023-03-06T17:11:46.838Z,100755.20
2023-03-06T17:14:15.712Z,100754.35
2023-03-06T17:16:44.028Z,100753.29
2023-03-06T17:19:14.686Z,100751.37
2023-03-06T17:21:44.495Z,100753.63
2023-03-06T17:24:12.764Z,100748.09
2023-03-06T17:26:40.998Z,100748.96
2023-03-06T17:29:09.756Z,100746.02
2023-03-06T17:31:38.053Z,100752.23
2023-03-06T17:34:06.084Z,100750.70
2023-03-06T17:36:34.713Z,100747.79
2023-03-06T17:39:03.085Z,100745.05
2023-03-06T17:41:34.431Z,100743.14
2023-03-06T17:44:06.372Z,100740.55
2023-03-06T17:46:35.063Z,100736.31
2023-03-06T17:49:03.153Z,100734.23
2023-03-06T17:51:31.238Z,100732.17
2023-03-06T17:53:59.351Z,100734.41
2023-03-06T17:56:31.499Z,100731.16
2023-03-06T17:59:00.382Z,100730.83
2023-03-06T18:01:30.334Z,100726.35
2023-03-06T18:04:04.535Z,100723.44
2023-03-06T18:06:33.732Z,100723.95
2023-03-06T18:09:05.513Z,100722.23
2023-03-06T18:11:35.248Z,100718.81
2023-03-06T18:14:05.569Z,100716.94
2023-03-06T18:16:53.448Z,100717.77
2023-03-06T18:19:22.093Z,100724.64
2023-03-06T18:21:50.245Z,100728.41
2023-03-06T18:24:18.633Z,100726.89
2023-03-06T18:26:47.765Z,100719.33
2023-03-06T18:29:16.750Z,100714.20
2023-03-06T18:31:50.107Z,100718.33
2023-03-06T18:34:20.046Z,100722.45
2023-03-06T18:36:51.669Z,100724.64
2023-03-06T18:39:21.530Z,100727.23
2023-03-06T18:41:53.608Z,100731.21
2023-03-06T18:44:21.645Z,100724.70
2023-03-06T18:46:49.739Z,100724.85
2023-03-06T18:49:18.031Z,100719.86
2023-03-06T18:51:51.478Z,100722.46
2023-03-06T18:54:19.797Z,100724.19
2023-03-06T18:56:47.901Z,100723.34
2023-03-06T18:59:35.995Z,100716.80
2023-03-06T19:02:04.554Z,100710.60
2023-03-06T19:04:32.867Z,100706.14
2023-03-06T19:07:00.958Z,100703.08
2023-03-06T19:09:29.752Z,100699.12
2023-03-06T19:11:59.340Z,100700.30
2023-03-06T19:14:28.569Z,100702.73
2023-03-06T19:16:56.677Z,100703.77
2023-03-06T19:19:26.493Z,100702.40
2023-03-06T19:21:57.719Z,100699.66
2023-03-06T19:24:26.060Z,100700.17
2023-03-06T19:26:54.166Z,100698.80
2023-03-06T19:29:22.652Z,100698.11
2023-03-06T19:31:52.407Z,100726.45
2023-03-06T19:34:20.703Z,100724.05
2023-03-06T19:36:50.662Z,100703.77
2023-03-06T19:39:19.680Z,100716.48
2023-03-06T19:41:47.906Z,100717.53
2023-03-06T19:44:16.506Z,100704.82
2023-03-06T19:46:44.652Z,100703.27
2023-03-06T19:49:16.027Z,100713.23
2023-03-06T19:51:47.692Z,100708.07
2023-03-06T19:54:23.717Z,100706.17
2023-03-06T19:56:51.851Z,100705.66
2023-03-06T19:59:22.202Z,100710.48
2023-03-06T20:01:50.334Z,100706.69
2023-03-06T20:04:18.757Z,100708.24
2023-03-06T20:06:49.114Z,100710.48
2023-03-06T20:09:21.276Z,100705.49
2023-03-06T20:11:49.690Z,100707.56
2023-03-06T20:14:19.234Z,100702.23
2023-03-06T20:16:47.570Z,100697.25
2023-03-06T20:19:17.331Z,100697.27
2023-03-06T20:21:45.624Z,100694.50
2023-03-06T20:24:16.864Z,100698.10
2023-03-06T20:26:45.886Z,100699.14
2023-03-06T20:29:14.184Z,100695.02
2023-03-06T20:31:42.348Z,100691.42
2023-03-06T20:34:10.854Z,100693.14
2023-03-06T20:36:40.552Z,100686.96
2023-03-06T20:39:13.733Z,100685.23
2023-03-06T20:41:42.246Z,100686.11
2023-03-06T20:44:14.448Z,100682.84
2023-03-06T20:46:43.467Z,100688.34
2023-03-06T20:49:15.947Z,100687.98
2023-03-06T20:51:44.456Z,100688.52
2023-03-06T20:54:14.116Z,100685.26
2023-03-06T20:56:43.530Z,100683.55
2023-03-06T20:59:12.142Z,100686.11
2023-03-06T21:01:42.465Z,100683.88
2023-03-06T21:04:14.013Z,100684.23
2023-03-06T21:06:46.754Z,100681.31
2023-03-06T21:09:16.547Z,100680.11
2023-03-06T21:11:45.212Z,100675.64
2023-03-06T21:14:14.929Z,100672.90
2023-03-06T21:16:43.660Z,100672.38
2023-03-06T21:19:20.000Z,100670.14
2023-03-06T21:21:48.465Z,100672.73
2023-03-06T21:24:16.869Z,100672.22
2023-03-06T21:26:45.641Z,100673.40
2023-03-06T21:29:13.966Z,100671.86
2023-03-06T21:31:42.410Z,100666.52
2023-03-06T21:34:11.692Z,100666.02
2023-03-06T21:36:39.862Z,100661.72
2023-03-06T21:39:07.943Z,100657.39
2023-03-06T21:41:38.315Z,100655.35
2023-03-06T21:44:07.181Z,100653.81
2023-03-06T21:46:36.081Z,100654.16
2023-03-06T21:49:04.660Z,100650.89
2023-03-06T21:51:33.547Z,100648.51
2023-03-06T21:54:03.027Z,100650.75
2023-03-06T21:56:33.518Z,100646.10
2023-03-06T21:59:02.691Z,100639.91
2023-03-06T22:01:31.566Z,100643.35
2023-03-06T22:04:00.502Z,100642.32
2023-03-06T22:06:31.260Z,100643.54
2023-03-06T22:09:00.147Z,100644.91
2023-03-06T22:11:36.960Z,100643.38
2023-03-06T22:14:06.764Z,100648.19
2023-03-06T22:16:38.651Z,100649.89
2023-03-06T22:19:07.730Z,100653.33
2023-03-06T22:21:35.959Z,100657.27
2023-03-06T22:24:06.342Z,100655.05
2023-03-06T22:26:34.874Z,100657.10
2023-03-06T22:29:03.052Z,100663.27
2023-03-06T22:31:32.588Z,100664.31
2023-03-06T22:34:01.689Z,100667.23
2023-03-06T22:36:30.858Z,100673.19
2023-03-06T22:39:00.556Z,100670.45
2023-03-06T22:41:29.109Z,100667.87
2023-03-06T22:43:58.597Z,100669.41
2023-03-06T22:46:26.732Z,100665.46
2023-03-06T22:48:58.951Z,100663.92
2023-03-06T22:51:28.032Z,100667.34
2023-03-06T22:53:58.438Z,100667.17
2023-03-06T22:56:30.471Z,100667.86
2023-03-06T22:58:58.748Z,100666.66
2023-03-06T23:01:29.085Z,100666.84
2023-03-06T23:03:59.083Z,100667.19
2023-03-06T23:06:33.686Z,100668.04
2023-03-06T23:09:06.061Z,100670.42
2023-03-06T23:11:53.423Z,100671.62
2023-03-06T23:14:41.788Z,100669.70
2023-03-06T23:17:34.514Z,100672.60
2023-03-06T23:20:22.151Z,100666.92
2023-03-06T23:23:10.266Z,100662.27
2023-03-06T23:25:44.437Z,100662.10
2023-03-06T23:28:12.770Z,100658.34
2023-03-06T23:30:41.888Z,100657.81
2023-03-06T23:33:10.394Z,100656.77
2023-03-06T23:35:40.409Z,100660.16
2023-03-06T23:38:08.880Z,100658.61
2023-03-06T23:40:37.916Z,100658.80
2023-03-06T23:43:06.380Z,100654.69
2023-03-06T23:45:34.992Z,100654.85
2023-03-06T23:48:07.042Z,100651.80
2023-03-06T23:50:35.286Z,100653.86
2023-03-06T23:53:03.580Z,100649.73
2023-03-06T23:55:31.683Z,100649.94
2023-03-06T23:58:03.704Z,100648.05
